createdAt,value
2019-05-26T00:01:22.956Z,97317.56
2019-05-26T00:03:51.607Z,97320.48
2019-05-26T00:06:20.269Z,97311.80
2019-05-26T00:08:49.304Z,97315.51
2019-05-26T00:11:18.270Z,97324.88
2019-05-26T00:13:47.044Z,97325.66
2019-05-26T00:16:15.763Z,97321.47
2019-05-26T00:18:44.357Z,97323.45
2019-05-26T00:21:13.366Z,97322.14
2019-05-26T00:23:42.046Z,97326.61
2019-05-26T00:26:10.713Z,97330.28
2019-05-26T00:28:39.324Z,97327.38
2019-05-26T00:31:08.093Z,97323.06
2019-05-26T00:33:36.730Z,97313.13
2019-05-26T00:36:05.509Z,97309.66
2019-05-26T00:38:34.237Z,97308.40
2019-05-26T00:41:02.899Z,97310.63
2019-05-26T00:43:31.598Z,97309.91
2019-05-26T00:46:00.322Z,97312.52
2019-05-26T00:48:29.156Z,97316.50
2019-05-26T00:50:57.859Z,97321.03
2019-05-26T00:53:26.588Z,97322.08
2019-05-26T00:55:55.240Z,97326.55
2019-05-26T00:58:23.996Z,97324.17
2019-05-26T01:00:52.896Z,97322.17
2019-05-26T01:03:21.618Z,97321.32
2019-05-26T01:05:50.333Z,97322.34
2019-05-26T01:08:19.041Z,97318.36
2019-05-26T01:10:47.766Z,97320.92
2019-05-26T01:13:16.525Z,97319.08
2019-05-26T01:15:45.237Z,97313.73
2019-05-26T01:18:13.883Z,97318.66
2019-05-26T01:20:42.709Z,97321.05
2019-05-26T01:23:11.422Z,97323.78
2019-05-26T01:25:40.090Z,97321.36
2019-05-26T01:28:08.799Z,97330.91
2019-05-26T01:30:39.094Z,97337.94
2019-05-26T01:33:08.070Z,97333.61
2019-05-26T01:35:39.973Z,97329.61
2019-05-26T01:38:22.504Z,97331.65
2019-05-26T01:40:41.726Z,97325.95
2019-05-26T01:43:10.408Z,97322.02
2019-05-26T01:45:39.070Z,97321.91
2019-05-26T01:48:08.374Z,97329.41
2019-05-26T01:50:37.561Z,97330.84
2019-05-26T01:53:07.716Z,97326.55
2019-05-26T01:55:36.351Z,97328.80
2019-05-26T01:58:05.313Z,97338.65
2019-05-26T02:00:34.146Z,97334.25
2019-05-26T02:03:03.435Z,97337.61
2019-05-26T02:05:32.133Z,97328.13
2019-05-26T02:08:01.021Z,97323.88
2019-05-26T02:10:29.676Z,97326.68
2019-05-26T02:12:58.337Z,97330.52
2019-05-26T02:15:27.412Z,97330.80
2019-05-26T02:17:56.136Z,97329.06
2019-05-26T02:20:24.799Z,97332.66
2019-05-26T02:22:53.704Z,97325.34
2019-05-26T02:25:22.556Z,97323.43
2019-05-26T02:27:51.206Z,97323.66
2019-05-26T02:30:20.408Z,97325.70
2019-05-26T02:32:49.125Z,97324.89
2019-05-26T02:35:17.892Z,97330.45
2019-05-26T02:37:46.539Z,97329.76
2019-05-26T02:40:17.239Z,97333.52
2019-05-26T02:42:45.975Z,97331.76
2019-05-26T02:45:19.466Z,97325.15
2019-05-26T02:47:48.216Z,97332.30
2019-05-26T02:50:17.908Z,97328.09
2019-05-26T02:52:46.631Z,97331.30
2019-05-26T02:55:15.766Z,97326.73
2019-05-26T02:57:44.470Z,97328.71
2019-05-26T03:00:14.588Z,97335.30
2019-05-26T03:02:44.471Z,97334.58
2019-05-26T03:05:14.814Z,97333.16
2019-05-26T03:07:46.372Z,97335.86
2019-05-26T03:10:15.807Z,97331.09
2019-05-26T03:12:46.186Z,97337.91
2019-05-26T03:15:16.322Z,97328.61
2019-05-26T03:17:46.381Z,97327.61
2019-05-26T03:20:15.548Z,97327.33
2019-05-26T03:22:45.802Z,97333.81
2019-05-26T03:25:14.492Z,97329.70
2019-05-26T03:27:43.134Z,97329.86
2019-05-26T03:30:11.972Z,97335.19
2019-05-26T03:32:40.656Z,97335.14
2019-05-26T03:35:10.632Z,97333.03
2019-05-26T03:37:39.267Z,97335.68
2019-05-26T03:40:09.045Z,97337.47
2019-05-26T03:42:37.866Z,97341.20
2019-05-26T03:45:08.210Z,97335.80
2019-05-26T03:47:36.901Z,97336.40
2019-05-26T03:50:07.972Z,97343.27
2019-05-26T03:52:36.673Z,97345.19
2019-05-26T03:55:07.616Z,97338.31
2019-05-26T03:57:36.488Z,97340.94
2019-05-26T04:00:08.927Z,97344.89
2019-05-26T04:02:37.644Z,97346.06
2019-05-26T04:05:07.065Z,97344.58
2019-05-26T04:07:35.777Z,97350.59
2019-05-26T04:10:06.868Z,97346.30
2019-05-26T04:12:35.479Z,97354.27
2019-05-26T04:15:07.405Z,97350.87
2019-05-26T04:17:36.096Z,97352.84
2019-05-26T04:20:06.315Z,97350.07
2019-05-26T04:22:34.978Z,97345.52
2019-05-26T04:25:05.641Z,97356.41
2019-05-26T04:27:34.299Z,97355.77
2019-05-26T04:30:02.941Z,97352.32
2019-05-26T04:32:31.692Z,97357.95
2019-05-26T04:35:00.371Z,97343.53
2019-05-26T04:37:29.045Z,97343.35
2019-05-26T04:39:57.802Z,97339.77
2019-05-26T04:42:26.518Z,97333.73
2019-05-26T04:44:55.213Z,97339.34
2019-05-26T04:47:23.924Z,97333.27
2019-05-26T04:49:52.853Z,97334.63
2019-05-26T04:52:21.557Z,97336.34
2019-05-26T04:54:50.283Z,97330.97
2019-05-26T04:57:19.017Z,97320.28
2019-05-26T04:59:47.665Z,97332.91
2019-05-26T05:02:16.404Z,97330.16
2019-05-26T05:04:45.061Z,97312.92
2019-05-26T05:07:13.718Z,97312.92
2019-05-26T05:09:42.464Z,97318.22
2019-05-26T05:12:11.348Z,97318.22
2019-05-26T05:14:40.066Z,97326.94
2019-05-26T05:17:08.813Z,97323.70
2019-05-26T05:19:37.372Z,97318.63
2019-05-26T05:22:06.353Z,97327.13
2019-05-26T05:24:35.008Z,97311.13
2019-05-26T05:27:03.761Z,97319.40
2019-05-26T05:29:32.468Z,97319.86
2019-05-26T05:32:01.102Z,97317.87
2019-05-26T05:34:29.785Z,97314.96
2019-05-26T05:36:58.485Z,97319.73
2019-05-26T05:39:31.572Z,97323.00
2019-05-26T05:42:01.502Z,97319.23
2019-05-26T05:44:40.866Z,97309.53
2019-05-26T05:47:00.850Z,97319.09
2019-05-26T05:49:29.508Z,97318.42
2019-05-26T05:51:58.191Z,97313.88
2019-05-26T05:54:26.773Z,97315.50
2019-05-26T05:56:55.901Z,97317.27
2019-05-26T05:59:24.738Z,97318.13
2019-05-26T06:01:54.953Z,97316.93
2019-05-26T06:04:23.587Z,97316.14
2019-05-26T06:06:52.268Z,97312.94
2019-05-26T06:09:20.908Z,97311.95
2019-05-26T06:11:54.297Z,97320.03
2019-05-26T06:14:20.086Z,97322.69
2019-05-26T06:16:48.708Z,97321.50
2019-05-26T06:19:17.466Z,97317.27
2019-05-26T06:21:46.371Z,97311.70
2019-05-26T06:24:15.033Z,97318.87
2019-05-26T06:26:43.685Z,97321.09
2019-05-26T06:29:12.441Z,97318.70
2019-05-26T06:31:41.087Z,97328.45
2019-05-26T06:34:09.798Z,97327.27
2019-05-26T06:36:38.571Z,97326.45
2019-05-26T06:39:08.131Z,97310.92
2019-05-26T06:41:36.774Z,97320.00
2019-05-26T06:44:05.604Z,97322.95
2019-05-26T06:46:34.243Z,97317.32
2019-05-26T06:49:02.897Z,97319.58
2019-05-26T06:51:31.665Z,97310.09
2019-05-26T06:54:00.404Z,97305.25
2019-05-26T06:56:29.127Z,97298.43
2019-05-26T06:58:57.906Z,97296.88
2019-05-26T07:01:26.482Z,97292.75
2019-05-26T07:03:55.196Z,97290.39
2019-05-26T07:06:23.916Z,97287.91
2019-05-26T07:08:52.568Z,97291.02
2019-05-26T07:11:21.295Z,97295.14
2019-05-26T07:13:49.924Z,97291.19
2019-05-26T07:16:18.677Z,97294.06
2019-05-26T07:18:47.582Z,97289.62
2019-05-26T07:21:16.321Z,97291.77
2019-05-26T07:23:44.988Z,97281.33
2019-05-26T07:26:13.627Z,97280.12
2019-05-26T07:28:42.361Z,97277.47
2019-05-26T07:31:12.592Z,97274.06
2019-05-26T07:33:41.241Z,97280.23
2019-05-26T07:36:09.890Z,97277.00
2019-05-26T07:38:38.650Z,97268.69
2019-05-26T07:41:07.382Z,97265.66
2019-05-26T07:43:36.028Z,97265.09
2019-05-26T07:46:04.784Z,97259.32
2019-05-26T07:48:36.088Z,97266.45
2019-05-26T07:51:03.889Z,97261.08
2019-05-26T07:53:32.757Z,97259.03
2019-05-26T07:56:01.505Z,97255.66
2019-05-26T07:58:30.168Z,97252.31
2019-05-26T08:00:58.936Z,97247.36
2019-05-26T08:03:27.674Z,97243.69
2019-05-26T08:05:57.950Z,97241.15
2019-05-26T08:08:26.641Z,97240.72
2019-05-26T08:10:55.290Z,97249.20
2019-05-26T08:13:24.010Z,97248.50
2019-05-26T08:15:52.800Z,97257.61
2019-05-26T08:18:21.438Z,97250.40
2019-05-26T08:20:50.110Z,97254.63
2019-05-26T08:23:18.908Z,97250.96
2019-05-26T08:25:47.685Z,97252.98
2019-05-26T08:28:16.450Z,97252.00
2019-05-26T08:30:45.231Z,97257.31
2019-05-26T08:33:13.858Z,97251.31
2019-05-26T08:35:44.018Z,97251.77
2019-05-26T08:38:12.642Z,97246.56
2019-05-26T08:40:41.304Z,97237.53
2019-05-26T08:43:10.025Z,97243.38
2019-05-26T08:45:38.704Z,97243.28
2019-05-26T08:48:07.355Z,97241.42
2019-05-26T08:50:36.090Z,97228.66
2019-05-26T08:53:04.856Z,97232.06
2019-05-26T08:55:34.486Z,97234.31
2019-05-26T08:58:03.137Z,97227.65
2019-05-26T09:00:31.869Z,97222.43
2019-05-26T09:03:00.591Z,97220.29
2019-05-26T09:05:29.308Z,97215.48
2019-05-26T09:07:57.985Z,97206.59
2019-05-26T09:10:26.719Z,97202.36
2019-05-26T09:13:01.362Z,97203.01
2019-05-26T09:15:25.792Z,97200.28
2019-05-26T09:17:54.510Z,97196.69
2019-05-26T09:20:23.239Z,97194.20
2019-05-26T09:22:51.971Z,97197.77
2019-05-26T09:25:20.920Z,97188.03
2019-05-26T09:27:49.585Z,97191.73
2019-05-26T09:30:18.666Z,97187.23
2019-05-26T09:32:47.298Z,97186.77
2019-05-26T09:35:16.865Z,97185.05
2019-05-26T09:37:45.554Z,97184.75
2019-05-26T09:40:14.472Z,97181.83
2019-05-26T09:42:43.104Z,97179.96
2019-05-26T09:45:13.343Z,97182.39
2019-05-26T09:47:42.073Z,97181.45
2019-05-26T09:50:11.121Z,97179.92
2019-05-26T09:52:39.838Z,97176.05
2019-05-26T09:55:09.055Z,97169.04
2019-05-26T09:57:38.720Z,97159.30
2019-05-26T10:00:16.342Z,97155.09
2019-05-26T10:02:45.898Z,97157.51
2019-05-26T10:05:15.773Z,97154.27
2019-05-26T10:07:47.267Z,97150.94
2019-05-26T10:10:16.823Z,97151.44
2019-05-26T10:12:46.845Z,97144.16
2019-05-26T10:15:16.806Z,97146.25
2019-05-26T10:17:45.444Z,97143.37
2019-05-26T10:20:14.437Z,97146.04
2019-05-26T10:22:43.165Z,97139.91
2019-05-26T10:25:12.083Z,97136.14
2019-05-26T10:27:40.695Z,97138.64
2019-05-26T10:30:14.685Z,97133.38
2019-05-26T10:32:43.335Z,97125.05
2019-05-26T10:35:12.762Z,97129.28
2019-05-26T10:37:41.533Z,97128.67
2019-05-26T10:40:11.943Z,97129.33
2019-05-26T10:42:40.614Z,97128.73
2019-05-26T10:45:09.744Z,97125.41
2019-05-26T10:47:38.489Z,97121.06
2019-05-26T10:50:07.740Z,97120.61
2019-05-26T10:52:36.416Z,97121.72
2019-05-26T10:55:08.121Z,97120.34
2019-05-26T10:57:36.846Z,97105.72
2019-05-26T11:00:10.479Z,97105.70
2019-05-26T11:02:39.143Z,97101.70
2019-05-26T11:05:09.097Z,97096.67
2019-05-26T11:07:37.796Z,97101.19
2019-05-26T11:10:09.593Z,97100.89
2019-05-26T11:12:38.304Z,97098.78
2019-05-26T11:15:08.380Z,97096.98
2019-05-26T11:17:36.971Z,97090.05
2019-05-26T11:20:11.319Z,97090.60
2019-05-26T11:22:40.101Z,97099.19
2019-05-26T11:25:09.527Z,97089.47
2019-05-26T11:27:38.178Z,97089.94
2019-05-26T11:30:09.631Z,97086.12
2019-05-26T11:32:43.387Z,97085.45
2019-05-26T11:35:13.603Z,97086.74
2019-05-26T11:37:42.311Z,97083.61
2019-05-26T11:40:11.168Z,97081.59
2019-05-26T11:42:39.816Z,97088.81
2019-05-26T11:45:09.175Z,97090.65
2019-05-26T11:47:37.823Z,97077.91
2019-05-26T11:50:07.970Z,97075.68
2019-05-26T11:52:36.713Z,97076.98
2019-05-26T11:55:09.303Z,97079.59
2019-05-26T11:57:38.046Z,97077.16
2019-05-26T12:00:10.046Z,97072.89
2019-05-26T12:02:39.345Z,97071.93
2019-05-26T12:05:09.629Z,97073.91
2019-05-26T12:07:38.465Z,97069.17
2019-05-26T12:10:14.169Z,97076.86
2019-05-26T12:12:42.866Z,97067.77
2019-05-26T12:15:13.387Z,97070.16
2019-05-26T12:17:42.083Z,97065.98
2019-05-26T12:20:11.043Z,97065.87
2019-05-26T12:22:39.680Z,97063.02
2019-05-26T12:25:09.114Z,97061.81
2019-05-26T12:27:39.331Z,97062.30
2019-05-26T12:30:09.551Z,97054.58
2019-05-26T12:32:38.251Z,97058.73
2019-05-26T12:35:08.488Z,97056.03
2019-05-26T12:37:37.173Z,97050.44
2019-05-26T12:40:07.613Z,97050.23
2019-05-26T12:42:36.353Z,97048.78
2019-05-26T12:45:09.410Z,97046.09
2019-05-26T12:47:38.064Z,97047.37
2019-05-26T12:50:08.819Z,97041.64
2019-05-26T12:52:37.812Z,97047.31
2019-05-26T12:55:09.444Z,97040.88
2019-05-26T12:57:37.708Z,97042.73
2019-05-26T13:00:08.371Z,97043.83
2019-05-26T13:02:37.100Z,97044.74
2019-05-26T13:05:07.329Z,97043.13
2019-05-26T13:07:36.200Z,97045.80
2019-05-26T13:10:06.799Z,97050.39
2019-05-26T13:12:35.468Z,97045.67
2019-05-26T13:15:09.453Z,97038.80
2019-05-26T13:17:38.161Z,97037.40
2019-05-26T13:20:08.330Z,97041.50
2019-05-26T13:22:37.458Z,97040.87
2019-05-26T13:25:07.943Z,97036.63
2019-05-26T13:27:36.705Z,97035.59
2019-05-26T13:30:10.307Z,97039.89
2019-05-26T13:32:38.965Z,97034.14
2019-05-26T13:35:11.428Z,97038.08
2019-05-26T13:37:40.084Z,97032.62
2019-05-26T13:40:09.409Z,97034.33
2019-05-26T13:42:38.068Z,97024.62
2019-05-26T13:45:21.703Z,97032.74
2019-05-26T13:47:39.976Z,97026.75
2019-05-26T13:50:10.233Z,97034.15
2019-05-26T13:52:39.219Z,97028.34
2019-05-26T13:55:10.563Z,97029.48
2019-05-26T13:57:39.451Z,97029.71
2019-05-26T14:00:10.920Z,97030.23
2019-05-26T14:02:40.050Z,97027.27
2019-05-26T14:05:09.284Z,97026.52
2019-05-26T14:07:37.978Z,97023.06
2019-05-26T14:10:08.792Z,97018.33
2019-05-26T14:12:37.481Z,97019.63
2019-05-26T14:15:10.936Z,97028.31
2019-05-26T14:17:40.700Z,97018.41
2019-05-26T14:20:11.303Z,97011.88
2019-05-26T14:22:39.955Z,97014.47
2019-05-26T14:25:09.131Z,97016.31
2019-05-26T14:27:37.857Z,97012.03
2019-05-26T14:30:07.399Z,97021.05
2019-05-26T14:32:37.294Z,97013.41
2019-05-26T14:35:15.058Z,97013.47
2019-05-26T14:37:43.683Z,97014.16
2019-05-26T14:40:12.851Z,97025.98
2019-05-26T14:42:41.511Z,97018.09
2019-05-26T14:45:10.564Z,97026.27
2019-05-26T14:47:39.298Z,97027.06
2019-05-26T14:50:09.071Z,97024.76
2019-05-26T14:52:37.795Z,97024.29
2019-05-26T14:55:07.172Z,97027.69
2019-05-26T14:57:35.812Z,97029.25
2019-05-26T15:00:06.801Z,97036.17
2019-05-26T15:02:35.527Z,97031.69
2019-05-26T15:05:05.237Z,97036.27
2019-05-26T15:07:33.947Z,97033.16
2019-05-26T15:10:02.591Z,97036.05
2019-05-26T15:12:31.279Z,97044.80
2019-05-26T15:15:00.033Z,97046.39
2019-05-26T15:17:28.742Z,97038.13
2019-05-26T15:19:57.497Z,97047.02
2019-05-26T15:22:26.206Z,97049.80
2019-05-26T15:24:54.848Z,97041.59
2019-05-26T15:27:23.573Z,97040.27
2019-05-26T15:29:52.361Z,97047.59
2019-05-26T15:32:20.949Z,97047.00
2019-05-26T15:34:49.605Z,97048.55
2019-05-26T15:37:18.362Z,97052.00
2019-05-26T15:39:47.069Z,97050.92
2019-05-26T15:42:15.665Z,97044.94
2019-05-26T15:44:44.293Z,97044.97
2019-05-26T15:47:13.011Z,97042.53
2019-05-26T15:49:41.660Z,97045.48
2019-05-26T15:52:10.344Z,97043.37
2019-05-26T15:54:39.055Z,97043.09
2019-05-26T15:57:07.700Z,97039.91
2019-05-26T15:59:36.545Z,97040.42
2019-05-26T16:02:05.576Z,97034.08
2019-05-26T16:04:34.299Z,97038.08
2019-05-26T16:07:03.011Z,97046.77
2019-05-26T16:09:31.573Z,97039.58
2019-05-26T16:12:00.462Z,97042.48
2019-05-26T16:14:29.222Z,97042.48
2019-05-26T16:16:57.878Z,97034.40
2019-05-26T16:19:26.543Z,97042.77
2019-05-26T16:21:55.304Z,97039.05
2019-05-26T16:24:23.955Z,97042.59
2019-05-26T16:26:52.615Z,97050.02
2019-05-26T16:29:21.377Z,97053.42
2019-05-26T16:31:50.098Z,97050.84
2019-05-26T16:34:18.847Z,97048.20
2019-05-26T16:36:47.542Z,97047.30
2019-05-26T16:39:16.268Z,97052.77
2019-05-26T16:41:44.934Z,97057.66
2019-05-26T16:44:13.654Z,97062.94
2019-05-26T16:46:55.472Z,97062.10
2019-05-26T16:49:12.762Z,97063.88
2019-05-26T16:51:41.548Z,97063.23
2019-05-26T16:54:10.273Z,97063.96
2019-05-26T16:56:38.911Z,97072.80
2019-05-26T16:59:07.748Z,97074.82
2019-05-26T17:01:36.627Z,97070.73
2019-05-26T17:04:05.277Z,97080.96
2019-05-26T17:06:33.953Z,97078.77
2019-05-26T17:09:02.630Z,97088.95
2019-05-26T17:11:31.449Z,97091.13
2019-05-26T17:14:00.096Z,97100.52
2019-05-26T17:16:28.806Z,97101.33
2019-05-26T17:18:57.453Z,97099.42
2019-05-26T17:21:26.199Z,97102.23
2019-05-26T17:23:54.970Z,97090.61
2019-05-26T17:26:23.808Z,97104.47
2019-05-26T17:28:52.570Z,97103.09
2019-05-26T17:31:21.276Z,97099.06
2019-05-26T17:33:49.999Z,97100.86
2019-05-26T17:36:18.670Z,97095.73
2019-05-26T17:38:47.351Z,97098.22
2019-05-26T17:41:16.354Z,97100.09
2019-05-26T17:43:45.180Z,97098.73
2019-05-26T17:46:15.221Z,97103.86
2019-05-26T17:48:44.156Z,97113.11
2019-05-26T17:51:12.932Z,97114.44
2019-05-26T17:53:41.555Z,97110.09
2019-05-26T17:56:10.325Z,97118.16
2019-05-26T17:58:38.961Z,97122.44
2019-05-26T18:01:07.704Z,97130.34
2019-05-26T18:03:36.422Z,97139.66
2019-05-26T18:06:05.232Z,97133.91
2019-05-26T18:08:36.241Z,97135.95
2019-05-26T18:11:04.428Z,97140.94
2019-05-26T18:13:33.209Z,97147.58
2019-05-26T18:16:01.948Z,97152.01
2019-05-26T18:18:30.755Z,97157.48
2019-05-26T18:20:59.378Z,97163.66
2019-05-26T18:23:28.066Z,97166.36
2019-05-26T18:25:56.776Z,97162.51
2019-05-26T18:28:25.500Z,97166.84
2019-05-26T18:30:54.251Z,97166.04
2019-05-26T18:33:23.064Z,97167.73
2019-05-26T18:35:51.703Z,97175.70
2019-05-26T18:38:20.438Z,97177.39
2019-05-26T18:40:49.241Z,97183.92
2019-05-26T18:43:17.924Z,97183.34
2019-05-26T18:45:46.736Z,97187.33
2019-05-26T18:48:15.417Z,97189.50
2019-05-26T18:50:44.318Z,97191.03
2019-05-26T18:53:13.280Z,97189.06
2019-05-26T18:55:41.943Z,97204.23
2019-05-26T18:58:10.674Z,97201.50
2019-05-26T19:00:39.465Z,97204.17
2019-05-26T19:03:08.138Z,97203.77
2019-05-26T19:05:38.534Z,97199.70
2019-05-26T19:08:07.375Z,97194.50
2019-05-26T19:10:36.055Z,97194.54
2019-05-26T19:13:04.815Z,97196.92
2019-05-26T19:15:33.518Z,97200.72
2019-05-26T19:18:16.716Z,97204.73
2019-05-26T19:20:32.680Z,97206.63
2019-05-26T19:23:01.586Z,97205.65
2019-05-26T19:25:30.335Z,97204.02
2019-05-26T19:27:58.902Z,97206.63
2019-05-26T19:30:27.653Z,97205.88
2019-05-26T19:32:56.410Z,97201.78
2019-05-26T19:35:25.129Z,97199.62
2019-05-26T19:37:53.805Z,97199.30
2019-05-26T19:40:22.571Z,97194.16
2019-05-26T19:42:51.478Z,97195.48
2019-05-26T19:45:20.202Z,97194.06
2019-05-26T19:47:48.881Z,97189.14
2019-05-26T19:50:17.602Z,97189.61
2019-05-26T19:52:49.717Z,97190.13
2019-05-26T19:55:16.868Z,97208.68
2019-05-26T19:57:48.493Z,97206.25
2019-05-26T20:00:18.491Z,97206.00
2019-05-26T20:02:47.271Z,97205.40
2019-05-26T20:05:16.206Z,97213.97
2019-05-26T20:07:44.849Z,97218.91
2019-05-26T20:10:13.952Z,97215.89
2019-05-26T20:12:42.656Z,97223.36
2019-05-26T20:15:11.962Z,97221.31
2019-05-26T20:17:40.738Z,97220.11
2019-05-26T20:20:10.499Z,97220.59
2019-05-26T20:22:39.250Z,97221.06
2019-05-26T20:25:09.272Z,97219.59
2019-05-26T20:27:37.940Z,97211.79
2019-05-26T20:30:08.570Z,97216.83
2019-05-26T20:32:37.357Z,97216.36
2019-05-26T20:35:07.577Z,97215.88
2019-05-26T20:37:36.249Z,97218.48
2019-05-26T20:40:09.186Z,97219.72
2019-05-26T20:42:38.079Z,97209.84
2019-05-26T20:45:10.128Z,97210.64
2019-05-26T20:47:38.834Z,97203.67
2019-05-26T20:50:08.452Z,97213.33
2019-05-26T20:52:37.460Z,97212.77
2019-05-26T20:55:07.071Z,97211.97
2019-05-26T20:57:35.712Z,97219.01
2019-05-26T21:00:07.509Z,97211.81
2019-05-26T21:02:36.379Z,97209.55
2019-05-26T21:05:08.955Z,97203.87
2019-05-26T21:07:37.626Z,97199.81
2019-05-26T21:10:07.077Z,97191.06
2019-05-26T21:12:35.959Z,97193.81
2019-05-26T21:15:05.596Z,97188.77
2019-05-26T21:17:34.362Z,97182.70
2019-05-26T21:20:03.400Z,97184.17
2019-05-26T21:22:32.129Z,97181.20
2019-05-26T21:25:00.911Z,97190.47
2019-05-26T21:27:34.538Z,97195.10
2019-05-26T21:30:04.191Z,97195.02
2019-05-26T21:32:32.888Z,97195.27
2019-05-26T21:35:01.629Z,97190.08
2019-05-26T21:37:30.343Z,97196.53
2019-05-26T21:39:58.945Z,97192.49
2019-05-26T21:42:27.725Z,97193.82
2019-05-26T21:44:56.437Z,97194.90
2019-05-26T21:47:25.127Z,97198.63
2019-05-26T21:49:53.855Z,97187.38
2019-05-26T21:52:22.837Z,97195.55
2019-05-26T21:54:51.526Z,97180.58
2019-05-26T21:57:20.190Z,97180.13
2019-05-26T21:59:48.910Z,97173.08
2019-05-26T22:02:18.169Z,97166.48
2019-05-26T22:04:46.817Z,97162.37
2019-05-26T22:07:15.482Z,97161.42
2019-05-26T22:09:44.135Z,97159.02
2019-05-26T22:12:12.858Z,97158.94
2019-05-26T22:14:41.459Z,97159.14
2019-05-26T22:17:10.106Z,97160.62
2019-05-26T22:19:38.803Z,97169.52
2019-05-26T22:22:07.458Z,97166.88
2019-05-26T22:24:36.229Z,97173.61
2019-05-26T22:27:05.056Z,97180.08
2019-05-26T22:29:33.619Z,97193.23
2019-05-26T22:32:02.287Z,97207.62
2019-05-26T22:34:31.044Z,97217.20
2019-05-26T22:36:59.747Z,97217.88
2019-05-26T22:39:28.539Z,97215.12
2019-05-26T22:41:57.366Z,97214.41
2019-05-26T22:44:26.210Z,97213.66
2019-05-26T22:46:54.944Z,97214.84
2019-05-26T22:49:23.818Z,97204.66
2019-05-26T22:51:52.707Z,97201.06
2019-05-26T22:54:21.543Z,97196.76
2019-05-26T22:56:50.273Z,97195.80
2019-05-26T22:59:18.848Z,97192.24
2019-05-26T23:01:47.800Z,97186.76
2019-05-26T23:04:16.441Z,97194.88
2019-05-26T23:06:45.078Z,97193.66
2019-05-26T23:09:13.941Z,97191.67
2019-05-26T23:11:42.664Z,97190.42
2019-05-26T23:14:11.307Z,97185.98
2019-05-26T23:16:39.999Z,97187.00
2019-05-26T23:19:18.924Z,97191.51
2019-05-26T23:21:39.155Z,97187.13
2019-05-26T23:24:07.851Z,97188.16
2019-05-26T23:26:36.485Z,97193.97
2019-05-26T23:29:05.381Z,97192.20
2019-05-26T23:31:34.096Z,97182.66
2019-05-26T23:34:02.739Z,97187.63
2019-05-26T23:36:31.384Z,97187.23
2019-05-26T23:39:00.064Z,97186.66
2019-05-26T23:41:28.846Z,97191.27
2019-05-26T23:43:57.405Z,97186.70
2019-05-26T23:46:27.710Z,97186.73
2019-05-26T23:48:56.280Z,97185.12
2019-05-26T23:51:25.320Z,97181.62
2019-05-26T23:53:54.044Z,97179.52
2019-05-26T23:56:23.026Z,97176.66
2019-05-26T23:58:51.490Z,97181.94
